»·PEaware :: SWA3036 KABQ-KLAX

SWA3036 :: KABQ-KLAX

FLIGHT INFORMATION

Flight Status: Arrived
Operator:
Southwest Airlines
More flights by this operator :: More flights under this callsign
Pilot: Kaleb W. (11686)
Aircraft: BOEING 737-800
(B738)
More flights by this aircraft type
Origin: KABQ Albuquerque Intl Sunport
United States
Destination: KLAX Los Angeles Intl
United States
More flights between these airports :: More routes between these airports
Route: +ADYOS3 ZUN J6 DRK GABBL HLYWD1
File this flight plan on PilotEdge
Remarks: RMK / SIMBRIEF
Altitude:
(Current/Filed)
38,000ft
Speed:
(Current/Filed)
449kts
Departed: 23-Jun-19 02:47 PM
Arrived: 23-Jun-19 03:30 PM
Distance/Time
Traveled:
587nm/0:43
Distance/Time
To Go:
Arrived

Flight Plot

Page will automatically refresh every two minutes.

Flight plan parsing failed; only flown route is shown


Map Options




Map Legend


Flown Route
Filed Route
Departure Airport
Arrival Airport
Navaid (VOR, NDB)
Fix

Horizontal Profiles

Position Reports

Time Latitude Longitude Heading Altitude Ground
Speed
23-Jun-19 14:45 34.592293 -113.435416 264 36121ft 401kts
23-Jun-19 14:46 34.576268 -113.568949 264 36082ft 402kts
23-Jun-19 14:47 34.559994 -113.703087 263 35982ft 402kts
23-Jun-19 14:48 34.543570 -113.837181 263 35919ft 402kts
23-Jun-19 14:49 34.527026 -113.971220 263 35917ft 402kts
23-Jun-19 14:50 34.507274 -114.104719 261 35926ft 401kts
23-Jun-19 14:51 34.477902 -114.235762 257 35915ft 403kts
23-Jun-19 14:52 34.447120 -114.366476 257 35914ft 403kts
23-Jun-19 14:53 34.416719 -114.497104 258 35914ft 402kts
23-Jun-19 14:54 34.390006 -114.628658 259 35931ft 402kts
23-Jun-19 14:55 34.363220 -114.760198 258 35501ft 401kts
23-Jun-19 14:56 34.336768 -114.889250 258 34339ft 389kts
23-Jun-19 14:57 34.309761 -115.014949 258 31973ft 383kts
23-Jun-19 14:58 34.282789 -115.137503 257 29973ft 371kts
23-Jun-19 14:59 34.255481 -115.262397 257 29980ft 397kts
23-Jun-19 15:00 34.227308 -115.394925 257 30051ft 413kts
23-Jun-19 15:01 34.198545 -115.529321 257 30088ft 412kts
23-Jun-19 15:02 34.169645 -115.663611 257 30091ft 412kts
23-Jun-19 15:03 34.153350 -115.798653 264 28865ft 403kts
23-Jun-19 15:04 34.140511 -115.931838 264 27671ft 399kts
23-Jun-19 15:05 34.127530 -116.064065 264 26671ft 394kts
23-Jun-19 15:06 34.114702 -116.194447 264 25668ft 389kts
23-Jun-19 15:07 34.101761 -116.323816 263 24703ft 385kts
23-Jun-19 15:08 34.087991 -116.451506 263 23970ft 383kts
23-Jun-19 15:09 34.078429 -116.540599 263 23934ft 384kts
23-Jun-19 15:10 34.065804 -116.667630 264 23941ft 383kts
23-Jun-19 15:11 34.053887 -116.796321 264 22136ft 385kts
23-Jun-19 15:12 34.041132 -116.923593 262 19124ft 374kts
23-Jun-19 15:13 34.024930 -117.045099 263 16867ft 364kts
23-Jun-19 15:14 34.010746 -117.165620 263 15018ft 357kts
23-Jun-19 15:15 33.996448 -117.285204 263 14986ft 361kts
23-Jun-19 15:16 33.982267 -117.405257 263 14981ft 361kts
23-Jun-19 15:17 33.977762 -117.524081 283 12920ft 357kts
23-Jun-19 15:18 33.999327 -117.639918 283 10214ft 342kts
23-Jun-19 15:19 34.001842 -117.740893 263 9264ft 281kts
23-Jun-19 15:20 33.992237 -117.833011 264 8099ft 270kts
23-Jun-19 15:21 33.983663 -117.921500 264 6626ft 262kts
23-Jun-19 15:22 33.975307 -118.007592 261 5419ft 249kts
23-Jun-19 15:23 33.967551 -118.084877 261 4820ft 231kts
23-Jun-19 15:24 33.960192 -118.157863 263 3494ft 206kts
23-Jun-19 15:25 33.953483 -118.224817 262 2198ft 191kts
23-Jun-19 15:26 33.947730 -118.281571 262 1723ft 144kts
23-Jun-19 15:27 33.942960 -118.328026 263 1039ft 141kts
23-Jun-19 15:28 33.938261 -118.373505 263 296ft 135kts
23-Jun-19 15:29 33.935773 -118.401739 282 119ft 19kts
23-Jun-19 15:30 33.936124 -118.403255 287 119ft 0kts
23-Jun-19 15:31 33.935817 -118.409143 264 126ft 29kts
23-Jun-19 15:32 33.940141 -118.412838 351 122ft 23kts
23-Jun-19 15:33 33.946158 -118.412737 356 119ft 25kts
23-Jun-19 15:34 33.947689 -118.406977 85 120ft 0kts
23-Jun-19 15:35 33.947689 -118.406977 85 120ft 0kts

Navigation Log

Ident Type
Flight plan parsing failed, navigation log unavailable